createdAt,value
2023-03-26T00:02:05.229Z,22.40
2023-03-26T00:04:34.465Z,22.40
2023-03-26T00:07:03.175Z,22.40
2023-03-26T00:09:32.768Z,22.40
2023-03-26T00:12:00.906Z,22.30
2023-03-26T00:14:29.970Z,22.40
2023-03-26T00:16:58.254Z,22.40
2023-03-26T00:19:27.886Z,22.40
2023-03-26T00:21:57.747Z,22.40
2023-03-26T00:24:29.923Z,22.40
2023-03-26T00:26:59.816Z,22.40
2023-03-26T00:29:28.795Z,22.40
2023-03-26T00:31:56.978Z,22.40
2023-03-26T00:34:26.385Z,22.40
2023-03-26T00:36:55.126Z,22.40
2023-03-26T00:39:24.099Z,22.40
2023-03-26T00:41:54.565Z,22.40
2023-03-26T00:44:24.441Z,22.40
2023-03-26T00:46:52.658Z,22.40
2023-03-26T00:49:21.022Z,22.40
2023-03-26T00:51:49.345Z,22.40
2023-03-26T00:54:17.471Z,22.40
2023-03-26T00:56:45.956Z,22.40
2023-03-26T00:59:14.168Z,22.30
2023-03-26T01:01:44.844Z,22.30
2023-03-26T01:04:28.477Z,22.30
2023-03-26T01:06:59.745Z,22.30
2023-03-26T01:09:33.794Z,22.30
2023-03-26T01:12:03.268Z,22.30
2023-03-26T01:14:31.828Z,22.30
2023-03-26T01:17:03.624Z,22.30
2023-03-26T01:19:39.172Z,22.20
2023-03-26T01:22:11.191Z,22.30
2023-03-26T01:24:41.802Z,22.20
2023-03-26T01:27:18.270Z,22.30
2023-03-26T01:29:54.181Z,22.20
2023-03-26T01:32:30.882Z,22.20
2023-03-26T01:35:19.032Z,22.20
2023-03-26T01:38:10.569Z,22.30
2023-03-26T01:40:43.996Z,22.30
2023-03-26T01:43:19.156Z,22.30
2023-03-26T01:45:50.609Z,22.30
2023-03-26T01:48:18.911Z,22.30
2023-03-26T01:50:48.708Z,22.30
2023-03-26T01:53:17.013Z,22.30
2023-03-26T01:56:02.119Z,22.30
2023-03-26T01:58:38.233Z,22.30
2023-03-26T02:01:19.598Z,22.30
2023-03-26T02:03:58.796Z,22.30
2023-03-26T02:06:34.378Z,22.30
2023-03-26T02:09:06.145Z,22.30
2023-03-26T02:11:38.260Z,22.30
2023-03-26T02:14:06.818Z,22.30
2023-03-26T02:16:35.072Z,22.30
2023-03-26T02:19:04.416Z,22.30
2023-03-26T02:21:34.117Z,22.30
2023-03-26T02:24:04.187Z,22.30
2023-03-26T02:26:38.898Z,22.30
2023-03-26T02:29:10.873Z,22.20
2023-03-26T02:31:41.087Z,22.30
2023-03-26T02:34:09.350Z,22.20
2023-03-26T02:36:42.931Z,22.20
2023-03-26T02:39:14.353Z,22.20
2023-03-26T02:41:47.231Z,22.20
2023-03-26T02:44:15.427Z,22.20
2023-03-26T02:47:01.763Z,22.20
2023-03-26T02:49:48.575Z,22.20
2023-03-26T02:52:26.101Z,22.20
2023-03-26T02:54:56.981Z,22.20
2023-03-26T02:57:27.953Z,22.30
2023-03-26T03:00:18.364Z,22.20
2023-03-26T03:02:48.123Z,22.30
2023-03-26T03:05:32.104Z,22.30
2023-03-26T03:08:20.796Z,22.30
2023-03-26T03:11:23.539Z,22.20
2023-03-26T03:13:54.830Z,22.30
2023-03-26T03:16:25.828Z,22.20
2023-03-26T03:18:57.907Z,22.20
2023-03-26T03:21:34.152Z,22.20
2023-03-26T03:24:02.644Z,22.20
2023-03-26T03:26:36.423Z,22.20
2023-03-26T03:29:26.316Z,22.20
2023-03-26T03:31:55.561Z,22.20
2023-03-26T03:34:39.543Z,22.20
2023-03-26T03:37:08.268Z,22.20
2023-03-26T03:39:44.469Z,22.20
2023-03-26T03:42:15.226Z,22.20
2023-03-26T03:44:45.045Z,22.20
2023-03-26T03:47:39.285Z,22.20
2023-03-26T03:50:09.528Z,22.20
2023-03-26T03:52:40.648Z,22.30
2023-03-26T03:55:10.646Z,22.30
2023-03-26T03:57:46.814Z,22.30
2023-03-26T04:00:22.244Z,22.30
2023-03-26T04:03:06.308Z,22.20
2023-03-26T04:05:35.265Z,22.20
2023-03-26T04:08:03.684Z,22.20
2023-03-26T04:10:46.970Z,22.20
2023-03-26T04:13:18.340Z,22.20
2023-03-26T04:16:12.476Z,22.20
2023-03-26T04:18:40.929Z,22.20
2023-03-26T04:21:16.019Z,22.20
2023-03-26T04:23:45.632Z,22.20
2023-03-26T04:26:26.242Z,22.20
2023-03-26T04:29:11.881Z,22.20
2023-03-26T04:31:43.174Z,22.20
2023-03-26T04:34:23.964Z,22.20
2023-03-26T04:37:02.998Z,22.20
2023-03-26T04:39:36.248Z,22.20
2023-03-26T04:42:37.598Z,22.20
2023-03-26T04:45:14.319Z,22.30
2023-03-26T04:47:46.704Z,22.30
2023-03-26T04:50:15.551Z,22.30
2023-03-26T04:52:45.400Z,22.30
2023-03-26T04:55:38.611Z,22.30
2023-03-26T04:58:15.974Z,22.40
2023-03-26T05:01:10.277Z,22.30
2023-03-26T05:03:45.856Z,22.30
2023-03-26T05:06:16.333Z,22.30
2023-03-26T05:08:44.620Z,22.30
2023-03-26T05:11:20.894Z,22.30
2023-03-26T05:13:49.316Z,22.30
2023-03-26T05:16:18.171Z,22.30
2023-03-26T05:18:54.047Z,22.30
2023-03-26T05:21:23.454Z,22.30
2023-03-26T05:23:51.791Z,22.20
2023-03-26T05:26:22.180Z,22.20
2023-03-26T05:28:52.429Z,22.20
2023-03-26T05:31:36.258Z,22.20
2023-03-26T05:34:06.774Z,22.20
2023-03-26T05:36:35.053Z,22.20
2023-03-26T05:39:29.875Z,22.20
2023-03-26T05:42:07.821Z,22.20
2023-03-26T05:45:02.306Z,22.10
2023-03-26T05:47:33.241Z,22.10
2023-03-26T05:50:02.983Z,22.10
2023-03-26T05:52:32.019Z,22.10
2023-03-26T05:55:29.086Z,22.10
2023-03-26T05:58:15.584Z,22.10
2023-03-26T06:00:49.338Z,22.10
2023-03-26T06:03:28.529Z,22.20
2023-03-26T06:06:18.567Z,22.20
2023-03-26T06:09:05.042Z,22.20
2023-03-26T06:11:34.095Z,22.20
2023-03-26T06:14:04.647Z,22.20
2023-03-26T06:16:34.023Z,22.20
2023-03-26T06:19:15.834Z,22.20
2023-03-26T06:22:08.193Z,22.20
2023-03-26T06:24:53.547Z,22.20
2023-03-26T06:27:44.008Z,22.20
2023-03-26T06:30:47.537Z,22.20
2023-03-26T06:33:37.570Z,22.20
2023-03-26T06:36:07.795Z,22.20
2023-03-26T06:38:37.741Z,22.20
2023-03-26T06:41:08.764Z,22.20
2023-03-26T06:43:39.654Z,22.20
2023-03-26T06:46:36.831Z,22.20
2023-03-26T06:49:45.308Z,22.20
2023-03-26T06:52:39.877Z,22.20
2023-03-26T06:55:26.494Z,22.20
2023-03-26T06:58:29.937Z,22.20
2023-03-26T07:01:35.979Z,22.20
2023-03-26T07:04:42.513Z,22.20
2023-03-26T07:07:29.199Z,22.20
2023-03-26T07:10:16.546Z,22.20
2023-03-26T07:13:06.446Z,22.20
2023-03-26T07:16:00.174Z,22.20
2023-03-26T07:18:30.964Z,22.20
2023-03-26T07:21:00.235Z,22.20
2023-03-26T07:23:32.495Z,22.20
2023-03-26T07:26:37.609Z,22.20
2023-03-26T07:29:25.443Z,22.20
2023-03-26T07:32:17.884Z,22.20
2023-03-26T07:35:11.761Z,22.20
2023-03-26T07:38:03.213Z,22.20
2023-03-26T07:41:13.749Z,22.20
2023-03-26T07:44:35.275Z,22.20
2023-03-26T07:47:45.213Z,22.20
2023-03-26T07:50:30.174Z,22.20
2023-03-26T07:53:33.938Z,22.20
2023-03-26T07:56:17.154Z,22.20
2023-03-26T07:59:21.783Z,22.20
2023-03-26T08:02:27.838Z,22.20
2023-03-26T08:05:18.971Z,22.20
2023-03-26T08:08:09.776Z,22.20
2023-03-26T08:10:59.379Z,22.20
2023-03-26T08:13:40.191Z,22.20
2023-03-26T08:16:13.320Z,22.30
2023-03-26T08:18:50.700Z,22.30
2023-03-26T08:21:23.284Z,22.30
2023-03-26T08:24:01.681Z,22.30
2023-03-26T08:26:38.637Z,22.30
2023-03-26T08:29:15.343Z,22.30
2023-03-26T08:31:45.709Z,22.30
2023-03-26T08:34:15.557Z,22.30
2023-03-26T08:36:43.791Z,22.30
2023-03-26T08:39:11.967Z,22.30
2023-03-26T08:42:20.796Z,22.30
2023-03-26T08:45:28.375Z,22.20
2023-03-26T08:48:31.042Z,22.20
2023-03-26T08:51:38.534Z,22.20
2023-03-26T08:54:48.392Z,22.20
2023-03-26T08:57:35.698Z,22.20
2023-03-26T09:00:36.994Z,22.20
2023-03-26T09:03:41.827Z,22.10
2023-03-26T09:06:28.012Z,22.20
2023-03-26T09:09:55.988Z,22.10
2023-03-26T09:13:12.003Z,22.10
2023-03-26T09:16:18.883Z,22.10
2023-03-26T09:19:25.720Z,22.20
2023-03-26T09:22:19.802Z,22.20
2023-03-26T09:25:26.527Z,22.20
2023-03-26T09:28:39.334Z,22.20
2023-03-26T09:31:29.422Z,22.20
2023-03-26T09:34:06.527Z,22.20
2023-03-26T09:36:47.752Z,22.20
2023-03-26T09:39:24.073Z,22.20
2023-03-26T09:42:07.749Z,22.30
2023-03-26T09:45:01.792Z,22.20
2023-03-26T09:47:44.259Z,22.30
2023-03-26T09:50:34.387Z,22.30
2023-03-26T09:53:22.806Z,22.30
2023-03-26T09:56:15.591Z,22.30
2023-03-26T09:59:08.544Z,22.30
2023-03-26T10:01:42.989Z,22.30
2023-03-26T10:04:42.416Z,22.30
2023-03-26T10:07:27.017Z,22.30
2023-03-26T10:10:02.382Z,22.30
2023-03-26T10:12:38.311Z,22.30
2023-03-26T10:15:28.303Z,22.30
2023-03-26T10:18:27.888Z,22.30
2023-03-26T10:21:04.634Z,22.30
2023-03-26T10:23:54.331Z,22.30
2023-03-26T10:26:41.774Z,22.30
2023-03-26T10:30:04.542Z,22.30
2023-03-26T10:32:45.385Z,22.30
2023-03-26T10:35:23.482Z,22.30
2023-03-26T10:38:03.461Z,22.40
2023-03-26T10:40:37.042Z,22.40
2023-03-26T10:43:57.834Z,22.40
2023-03-26T10:46:55.328Z,22.50
2023-03-26T10:49:54.310Z,22.50
2023-03-26T10:52:25.450Z,22.50
2023-03-26T10:54:57.563Z,22.60
2023-03-26T10:57:40.751Z,22.70
2023-03-26T11:00:18.461Z,22.80
2023-03-26T11:02:59.365Z,22.90
2023-03-26T11:05:47.488Z,22.90
2023-03-26T11:08:31.201Z,23.00
2023-03-26T11:11:06.320Z,23.10
2023-03-26T11:13:47.255Z,23.20
2023-03-26T11:16:22.996Z,23.30
2023-03-26T11:18:55.574Z,23.30
2023-03-26T11:21:33.145Z,23.30
2023-03-26T11:24:19.200Z,23.30
2023-03-26T11:26:55.726Z,23.20
2023-03-26T11:29:42.187Z,23.10
2023-03-26T11:32:13.927Z,23.10
2023-03-26T11:34:50.327Z,23.00
2023-03-26T11:37:27.663Z,22.90
2023-03-26T11:40:00.505Z,22.80
2023-03-26T11:42:29.871Z,22.80
2023-03-26T11:45:01.990Z,22.70
2023-03-26T11:47:35.117Z,22.70
2023-03-26T11:50:07.136Z,22.70
2023-03-26T11:52:37.441Z,22.80
2023-03-26T11:55:06.695Z,22.80
2023-03-26T11:57:38.060Z,22.90
2023-03-26T12:00:16.594Z,23.00
2023-03-26T12:02:46.200Z,23.00
2023-03-26T12:05:19.292Z,22.90
2023-03-26T12:07:53.815Z,22.90
2023-03-26T12:10:28.526Z,22.90
2023-03-26T12:13:00.595Z,22.80
2023-03-26T12:15:30.876Z,22.80
2023-03-26T12:18:00.430Z,22.80
2023-03-26T12:20:38.946Z,22.70
2023-03-26T12:23:28.564Z,22.70
2023-03-26T12:26:12.050Z,22.60
2023-03-26T12:28:46.476Z,22.60
2023-03-26T12:31:18.256Z,22.60
2023-03-26T12:34:03.883Z,22.60
2023-03-26T12:36:34.027Z,22.60
2023-03-26T12:40:10.818Z,22.60
2023-03-26T12:44:56.340Z,22.60
2023-03-26T12:45:22.650Z,22.60
2023-03-26T12:48:01.446Z,22.80
2023-03-26T12:50:45.627Z,23.00
2023-03-26T12:53:28.533Z,23.20
2023-03-26T12:56:10.173Z,23.50
2023-03-26T12:59:03.942Z,23.70
2023-03-26T13:01:41.915Z,23.90
2023-03-26T13:04:35.201Z,23.90
2023-03-26T13:07:10.774Z,24.00
2023-03-26T13:10:05.299Z,24.10
2023-03-26T13:12:42.728Z,24.10
2023-03-26T13:15:20.728Z,24.20
2023-03-26T13:17:56.746Z,24.30
2023-03-26T13:20:33.086Z,24.40
2023-03-26T13:23:10.578Z,24.40
2023-03-26T13:25:48.957Z,24.50
2023-03-26T13:28:25.595Z,24.60
2023-03-26T13:31:05.021Z,24.60
2023-03-26T13:33:43.911Z,24.60
2023-03-26T13:36:23.677Z,24.60
2023-03-26T13:39:10.887Z,24.60
2023-03-26T13:42:07.200Z,24.60
2023-03-26T13:44:45.693Z,24.50
2023-03-26T13:47:17.794Z,24.40
2023-03-26T13:49:51.893Z,24.30
2023-03-26T13:52:24.570Z,24.20
2023-03-26T13:55:02.488Z,24.20
2023-03-26T13:57:34.449Z,24.10
2023-03-26T14:00:12.581Z,24.00
2023-03-26T14:02:43.143Z,23.90
2023-03-26T14:05:18.645Z,23.80
2023-03-26T14:07:52.452Z,23.70
2023-03-26T14:10:25.823Z,23.70
2023-03-26T14:13:01.088Z,23.60
2023-03-26T14:15:35.702Z,23.60
2023-03-26T14:18:23.677Z,23.60
2023-03-26T14:21:12.202Z,23.50
2023-03-26T14:24:16.818Z,23.50
2023-03-26T14:27:06.502Z,23.40
2023-03-26T14:30:12.340Z,23.40
2023-03-26T14:32:53.703Z,23.30
2023-03-26T14:35:33.594Z,23.30
2023-03-26T14:38:21.748Z,23.20
2023-03-26T14:41:05.559Z,23.20
2023-03-26T14:44:25.592Z,23.20
2023-03-26T14:47:15.304Z,23.20
2023-03-26T14:50:23.498Z,23.20
2023-03-26T14:53:01.159Z,23.20
2023-03-26T14:56:05.150Z,23.30
2023-03-26T14:59:10.171Z,23.30
2023-03-26T15:02:14.240Z,23.40
2023-03-26T15:05:12.120Z,23.50
2023-03-26T15:08:04.247Z,23.50
2023-03-26T15:10:53.592Z,23.50
2023-03-26T15:13:45.845Z,23.60
2023-03-26T15:16:44.095Z,23.60
2023-03-26T15:19:48.607Z,23.60
2023-03-26T15:22:59.209Z,23.70
2023-03-26T15:25:55.634Z,23.60
2023-03-26T15:29:03.242Z,23.60
2023-03-26T15:31:56.248Z,23.60
2023-03-26T15:35:00.143Z,23.60
2023-03-26T15:38:08.063Z,23.50
2023-03-26T15:40:58.542Z,23.50
2023-03-26T15:44:22.355Z,23.40
2023-03-26T15:46:59.172Z,23.40
2023-03-26T15:49:39.745Z,23.30
2023-03-26T15:52:20.628Z,23.30
2023-03-26T15:54:55.077Z,23.20
2023-03-26T15:57:30.584Z,23.20
2023-03-26T16:00:22.879Z,23.20
2023-03-26T16:03:21.568Z,23.10
2023-03-26T16:06:28.326Z,23.10
2023-03-26T16:09:14.925Z,23.10
2023-03-26T16:12:24.958Z,23.10
2023-03-26T16:15:20.912Z,23.10
2023-03-26T16:18:22.556Z,23.00
2023-03-26T16:20:54.818Z,23.00
2023-03-26T16:23:30.340Z,23.00
2023-03-26T16:26:11.188Z,23.00
2023-03-26T16:29:14.176Z,23.00
2023-03-26T16:32:14.936Z,23.00
2023-03-26T16:34:50.571Z,23.00
2023-03-26T16:37:43.791Z,23.00
2023-03-26T16:40:34.960Z,23.00
2023-03-26T16:43:27.909Z,23.00
2023-03-26T16:46:04.949Z,22.90
2023-03-26T16:48:39.733Z,22.90
2023-03-26T16:51:17.026Z,22.90
2023-03-26T16:53:57.970Z,22.90
2023-03-26T16:56:39.054Z,22.90
2023-03-26T16:59:10.234Z,22.90
2023-03-26T17:01:46.979Z,22.80
2023-03-26T17:04:20.697Z,22.80
2023-03-26T17:07:13.697Z,22.80
2023-03-26T17:10:01.107Z,22.80
2023-03-26T17:12:37.832Z,22.80
2023-03-26T17:15:14.821Z,22.80
2023-03-26T17:18:03.107Z,22.70
2023-03-26T17:20:36.974Z,22.70
2023-03-26T17:23:21.471Z,22.70
2023-03-26T17:26:01.884Z,22.70
2023-03-26T17:28:59.902Z,22.60
2023-03-26T17:31:38.421Z,22.60
2023-03-26T17:34:35.007Z,22.60
2023-03-26T17:37:05.812Z,22.60
2023-03-26T17:40:38.158Z,22.60
2023-03-26T17:43:11.151Z,22.60
2023-03-26T17:45:43.857Z,22.60
2023-03-26T17:48:19.388Z,22.60
2023-03-26T17:50:52.463Z,22.60
2023-03-26T17:53:24.422Z,22.60
2023-03-26T17:55:54.882Z,22.60
2023-03-26T17:58:28.236Z,22.60
2023-03-26T18:01:05.166Z,22.60
2023-03-26T18:03:37.407Z,22.60
2023-03-26T18:06:09.573Z,22.60
2023-03-26T18:09:06.948Z,22.50
2023-03-26T18:12:03.338Z,22.50
2023-03-26T18:15:16.316Z,22.50
2023-03-26T18:17:46.985Z,22.50
2023-03-26T18:20:24.498Z,22.50
2023-03-26T18:22:53.744Z,22.40
2023-03-26T18:25:25.936Z,22.40
2023-03-26T18:27:57.187Z,22.40
2023-03-26T18:30:26.135Z,22.40
2023-03-26T18:33:00.792Z,22.40
2023-03-26T18:35:41.054Z,22.40
2023-03-26T18:38:18.595Z,22.40
2023-03-26T18:41:05.910Z,22.40
2023-03-26T18:43:44.044Z,22.40
2023-03-26T18:46:14.477Z,22.40
2023-03-26T18:48:43.434Z,22.40
2023-03-26T18:51:11.932Z,22.40
2023-03-26T18:53:44.036Z,22.40
2023-03-26T18:56:30.901Z,22.40
2023-03-26T18:59:02.431Z,22.40
2023-03-26T19:01:32.147Z,22.40
2023-03-26T19:04:03.899Z,22.40
2023-03-26T19:06:35.873Z,22.40
2023-03-26T19:09:16.268Z,22.40
2023-03-26T19:11:58.143Z,22.40
2023-03-26T19:14:28.682Z,22.40
2023-03-26T19:17:00.592Z,22.40
2023-03-26T19:19:33.691Z,22.40
2023-03-26T19:22:03.648Z,22.40
2023-03-26T19:24:32.742Z,22.40
2023-03-26T19:27:01.202Z,22.40
2023-03-26T19:29:34.181Z,22.40
2023-03-26T19:32:04.620Z,22.40
2023-03-26T19:34:34.892Z,22.40
2023-03-26T19:37:04.900Z,22.40
2023-03-26T19:39:41.650Z,22.40
2023-03-26T19:42:16.013Z,22.30
2023-03-26T19:44:45.800Z,22.30
2023-03-26T19:47:19.708Z,22.30
2023-03-26T19:49:54.160Z,22.30
2023-03-26T19:52:25.896Z,22.30
2023-03-26T19:54:59.545Z,22.30
2023-03-26T19:57:30.392Z,22.30
2023-03-26T20:00:00.672Z,22.30
2023-03-26T20:02:29.354Z,22.30
2023-03-26T20:04:57.668Z,22.30
2023-03-26T20:07:35.380Z,22.30
2023-03-26T20:10:05.805Z,22.30
2023-03-26T20:12:34.320Z,22.30
2023-03-26T20:15:19.284Z,22.30
2023-03-26T20:17:50.211Z,22.30
2023-03-26T20:20:19.388Z,22.30
2023-03-26T20:22:48.225Z,22.30
2023-03-26T20:25:20.062Z,22.30
2023-03-26T20:27:48.942Z,22.30
2023-03-26T20:30:27.523Z,22.30
2023-03-26T20:33:12.625Z,22.30
2023-03-26T20:35:42.807Z,22.30
2023-03-26T20:38:11.239Z,22.20
2023-03-26T20:40:40.233Z,22.20
2023-03-26T20:43:13.352Z,22.20
2023-03-26T20:45:43.652Z,22.20
2023-03-26T20:51:47.683Z,22.20
2023-03-26T20:54:18.014Z,22.20
2023-03-26T20:56:47.742Z,22.20
2023-03-26T20:59:22.309Z,22.20
2023-03-26T21:01:52.238Z,22.20
2023-03-26T21:04:20.913Z,22.20
2023-03-26T21:06:49.445Z,22.20
2023-03-26T21:09:23.517Z,22.20
2023-03-26T21:11:57.026Z,22.20
2023-03-26T21:14:28.693Z,22.20
2023-03-26T21:16:58.929Z,22.20
2023-03-26T21:19:27.787Z,22.20
2023-03-26T21:22:11.328Z,22.20
2023-03-26T21:24:52.487Z,22.20
2023-03-26T21:27:28.262Z,22.20
2023-03-26T21:29:58.195Z,22.20
2023-03-26T21:32:28.431Z,22.20
2023-03-26T21:34:59.358Z,22.20
2023-03-26T21:37:28.581Z,22.20
2023-03-26T21:39:57.199Z,22.20
2023-03-26T21:42:26.949Z,22.20
2023-03-26T21:44:56.046Z,22.20
2023-03-26T21:47:24.695Z,22.20
2023-03-26T21:49:54.837Z,22.20
2023-03-26T21:52:23.977Z,22.20
2023-03-26T21:54:52.841Z,22.20
2023-03-26T21:57:36.966Z,22.20
2023-03-26T22:00:14.593Z,22.20
2023-03-26T22:02:52.277Z,22.10
2023-03-26T22:05:28.260Z,22.10
2023-03-26T22:07:58.485Z,22.10
2023-03-26T22:10:27.035Z,22.10
2023-03-26T22:12:55.150Z,22.10
2023-03-26T22:15:25.821Z,22.10
2023-03-26T22:17:55.609Z,22.00
2023-03-26T22:20:25.320Z,22.00
2023-03-26T22:22:55.091Z,22.00
2023-03-26T22:25:24.419Z,22.00
2023-03-26T22:27:53.883Z,22.00
2023-03-26T22:30:22.023Z,22.00
2023-03-26T22:32:50.463Z,22.00
2023-03-26T22:35:18.752Z,22.00
2023-03-26T22:37:48.917Z,22.10
2023-03-26T22:40:17.950Z,22.10
2023-03-26T22:42:46.064Z,22.10
2023-03-26T22:45:14.491Z,22.10
2023-03-26T22:47:42.574Z,22.10
2023-03-26T22:50:11.639Z,22.10
2023-03-26T22:52:40.704Z,22.10
2023-03-26T22:55:11.802Z,22.10
2023-03-26T22:57:41.394Z,22.10
2023-03-26T23:00:16.334Z,22.10
2023-03-26T23:02:45.891Z,22.10
2023-03-26T23:05:14.871Z,22.10
2023-03-26T23:07:43.486Z,22.00
2023-03-26T23:10:14.404Z,22.00
2023-03-26T23:12:42.541Z,22.00
2023-03-26T23:15:11.635Z,22.00
2023-03-26T23:17:40.262Z,22.00
2023-03-26T23:20:14.861Z,22.00
2023-03-26T23:22:44.076Z,21.90
2023-03-26T23:25:14.290Z,21.90
2023-03-26T23:27:42.345Z,21.90
2023-03-26T23:30:11.832Z,21.90
2023-03-26T23:32:41.052Z,21.90
2023-03-26T23:35:09.715Z,21.90
2023-03-26T23:37:37.839Z,21.90
2023-03-26T23:40:10.012Z,21.90
2023-03-26T23:42:39.986Z,21.90
2023-03-26T23:45:09.290Z,21.90
2023-03-26T23:47:42.101Z,21.90
2023-03-26T23:50:11.541Z,21.90
2023-03-26T23:52:39.935Z,21.90
2023-03-26T23:55:08.612Z,21.90
2023-03-26T23:57:37.118Z,21.90
